»·PEaware :: DAL115 KCOS-KASE

DAL115 :: KCOS-KASE

FLIGHT INFORMATION

Flight Status: Arrived
Operator:
Delta Air Lines
More flights by this operator :: More flights under this callsign
Pilot: Sergei F. (8485)
Aircraft: BOEING 737-300
(B733)
More flights by this aircraft type
Origin: KCOS City Of Colorado Springs Mun
United States
Destination: KASE Aspen-Pitkin Co/Sardy
United States
More flights between these airports :: More routes between these airports
Route: + DBL
File this flight plan on PilotEdge
Remarks:
Altitude:
(Current/Filed)
200ft
Speed:
(Current/Filed)
300kts
Departed: 03-Jan-18 06:16 PM
Arrived: 03-Jan-18 06:56 PM
Distance/Time
Traveled:
104nm/0:39
Distance/Time
To Go:
Arrived

Flight Plot

Page will automatically refresh every two minutes.

Flight plan parsing failed; only flown route is shown


Map Options




Map Legend


Flown Route
Filed Route
Departure Airport
Arrival Airport
Navaid (VOR, NDB)
Fix

Horizontal Profiles

Position Reports

Time Latitude Longitude Heading Altitude Ground
Speed
03-Jan-18 17:49 38.798871 -104.700199 269 6121ft 0kts
03-Jan-18 17:50 38.798871 -104.700199 269 6121ft 0kts
03-Jan-18 17:51 38.798871 -104.700199 269 6121ft 0kts
03-Jan-18 17:52 38.798871 -104.700199 269 6121ft 0kts
03-Jan-18 17:53 38.798871 -104.700199 269 6121ft 0kts
03-Jan-18 17:54 38.798871 -104.700199 269 6121ft 0kts
03-Jan-18 17:55 38.798871 -104.700199 269 6121ft 0kts
03-Jan-18 17:56 38.798871 -104.700199 269 6121ft 0kts
03-Jan-18 17:57 38.798871 -104.700199 269 6121ft 0kts
03-Jan-18 17:58 38.798871 -104.700199 269 6121ft 0kts
03-Jan-18 17:59 38.798871 -104.700199 269 6121ft 0kts
03-Jan-18 18:00 38.798871 -104.700199 269 6121ft 0kts
03-Jan-18 18:01 38.798871 -104.700200 269 6121ft 0kts
03-Jan-18 18:02 38.798871 -104.700201 269 6121ft 0kts
03-Jan-18 18:03 38.798877 -104.699549 269 6123ft 0kts
03-Jan-18 18:04 38.798881 -104.699333 1 6124ft 0kts
03-Jan-18 18:05 38.798881 -104.699333 1 6124ft 0kts
03-Jan-18 18:06 38.798881 -104.699333 1 6124ft 0kts
03-Jan-18 18:07 38.799147 -104.699322 1 6124ft 3kts
03-Jan-18 18:08 38.799426 -104.699323 359 6123ft 0kts
03-Jan-18 18:09 38.800749 -104.698676 90 6126ft 5kts
03-Jan-18 18:10 38.801049 -104.697254 17 6130ft 8kts
03-Jan-18 18:11 38.803553 -104.697223 0 6130ft 12kts
03-Jan-18 18:12 38.806795 -104.695444 46 6140ft 10kts
03-Jan-18 18:13 38.809032 -104.692559 45 6152ft 13kts
03-Jan-18 18:14 38.811498 -104.689392 46 6165ft 13kts
03-Jan-18 18:15 38.815210 -104.687834 0 6163ft 8kts
03-Jan-18 18:16 38.815979 -104.687127 88 6163ft 0kts
03-Jan-18 18:17 38.815979 -104.687127 88 6163ft 0kts
03-Jan-18 18:18 38.815979 -104.687127 88 6163ft 0kts
03-Jan-18 18:19 38.815979 -104.687127 88 6163ft 0kts
03-Jan-18 18:20 38.815971 -104.686170 95 6166ft 4kts
03-Jan-18 18:21 38.815550 -104.685739 178 6168ft 0kts
03-Jan-18 18:22 38.798735 -104.685751 182 6212ft 171kts
03-Jan-18 18:23 38.746134 -104.682427 178 8503ft 205kts
03-Jan-18 18:24 38.682956 -104.676853 178 10209ft 254kts
03-Jan-18 18:25 38.610712 -104.669418 178 11840ft 264kts
03-Jan-18 18:26 38.537486 -104.660341 178 13708ft 274kts
03-Jan-18 18:27 38.461615 -104.648874 178 15903ft 275kts
03-Jan-18 18:28 38.431080 -104.573449 45 17001ft 280kts
03-Jan-18 18:29 38.495338 -104.559035 343 16969ft 250kts
03-Jan-18 18:30 38.577316 -104.574341 347 16942ft 335kts
03-Jan-18 18:31 38.670623 -104.589410 347 16995ft 341kts
03-Jan-18 18:32 38.763586 -104.604323 347 17001ft 340kts
03-Jan-18 18:33 38.857168 -104.619369 347 17000ft 340kts
03-Jan-18 18:34 38.951116 -104.633584 354 17783ft 347kts
03-Jan-18 18:35 39.048246 -104.631887 355 19914ft 354kts
03-Jan-18 18:36 39.144602 -104.630219 355 20253ft 355kts
03-Jan-18 18:37 39.240423 -104.640366 322 20221ft 340kts
03-Jan-18 18:38 39.269361 -104.752875 278 20190ft 355kts
03-Jan-18 18:39 39.280408 -104.877932 279 20217ft 355kts
03-Jan-18 18:40 39.291473 -105.003508 278 20204ft 351kts
03-Jan-18 18:41 39.302325 -105.128251 277 20201ft 349kts
03-Jan-18 18:42 39.312934 -105.251822 277 20199ft 349kts
03-Jan-18 18:43 39.323504 -105.376525 277 20196ft 349kts
03-Jan-18 18:44 39.333806 -105.499629 277 20242ft 349kts
03-Jan-18 18:45 39.344131 -105.624648 277 20297ft 350kts
03-Jan-18 18:46 39.354197 -105.748406 276 20302ft 350kts
03-Jan-18 18:47 39.364226 -105.873158 276 20304ft 350kts
03-Jan-18 18:48 39.374120 -105.997880 276 20304ft 349kts
03-Jan-18 18:49 39.383892 -106.122772 276 20303ft 350kts
03-Jan-18 18:50 39.393523 -106.247613 276 20304ft 349kts
03-Jan-18 18:51 39.403062 -106.373018 276 19951ft 351kts
03-Jan-18 18:52 39.411911 -106.491076 276 18441ft 317kts
03-Jan-18 18:53 39.419932 -106.599399 276 16928ft 292kts
03-Jan-18 18:54 39.427103 -106.697661 275 16011ft 251kts
03-Jan-18 18:55 39.432989 -106.779065 275 15845ft 216kts
03-Jan-18 18:56 39.433954 -106.855196 252 14865ft 207kts
03-Jan-18 18:57 39.404210 -106.913531 220 13315ft 190kts
03-Jan-18 18:58 39.355739 -106.929609 165 11524ft 183kts
03-Jan-18 18:59 39.311268 -106.910449 165 9882ft 162kts
03-Jan-18 19:00 39.273183 -106.892861 163 8620ft 140kts
03-Jan-18 19:01 39.236203 -106.875156 164 7782ft 139kts
03-Jan-18 19:02 39.220669 -106.867692 157 7760ft 8kts
03-Jan-18 19:03 39.219917 -106.866127 158 7771ft 3kts
03-Jan-18 19:04 39.219080 -106.865717 159 7777ft 4kts
03-Jan-18 19:05 39.218868 -106.864545 69 7780ft 0kts
03-Jan-18 19:06 39.218868 -106.864545 69 7780ft 0kts

Navigation Log

Ident Type
Flight plan parsing failed, navigation log unavailable